Time,TemperatureF,DewpointF,PressureIn,WindDirection,WindDirectionDegrees,WindSpeedMPH,WindSpeedGustMPH,Humidity,HourlyPrecipIn,Conditions,Clouds,dailyrainin,SoftwareType,DateUTC
2013-10-23 00:01:00,42.5,35.8,29.80,West,281,0.0,4.0,77,0.00,,---,0.00,VWS V13.00,2013-10-23 04:01:00,
2013-10-23 00:06:00,42.3,35.6,29.80,West,281,0.0,2.0,77,0.00,,---,0.00,VWS V13.00,2013-10-23 04:06:00,
2013-10-23 00:11:00,42.2,35.5,29.80,West,281,0.0,2.0,77,0.00,,---,0.00,VWS V13.00,2013-10-23 04:11:00,
2013-10-23 00:16:00,42.0,35.0,29.80,WNW,282,0.0,2.0,76,0.00,,---,0.00,VWS V13.00,2013-10-23 04:16:00,
2013-10-23 00:21:00,41.9,34.6,29.80,WNW,282,0.0,2.0,75,0.00,,---,0.00,VWS V13.00,2013-10-23 04:21:00,
2013-10-23 00:26:00,41.9,34.9,29.80,WNW,282,0.0,2.0,76,0.00,,---,0.00,VWS V13.00,2013-10-23 04:26:00,
2013-10-23 00:31:00,41.8,34.8,29.80,WNW,282,0.0,2.0,76,0.00,,---,0.00,VWS V13.00,2013-10-23 04:31:00,
2013-10-23 00:36:00,41.7,35.4,29.80,West,281,0.0,0.0,78,0.00,,---,0.00,VWS V13.00,2013-10-23 04:36:00,
2013-10-23 00:41:00,41.5,35.2,29.80,WNW,282,0.0,0.0,78,0.00,,---,0.00,VWS V13.00,2013-10-23 04:41:00,
2013-10-23 00:46:00,41.5,34.8,29.80,WNW,282,0.0,1.0,77,0.00,,---,0.00,VWS V13.00,2013-10-23 04:46:00,
2013-10-23 00:51:00,41.4,34.7,29.80,WNW,282,0.0,1.0,77,0.00,,---,0.00,VWS V13.00,2013-10-23 04:51:00,
2013-10-23 00:56:00,41.5,34.5,29.80,WNW,282,0.0,1.0,76,0.00,,---,0.00,VWS V13.00,2013-10-23 04:56:00,
2013-10-23 01:01:00,41.7,34.7,29.80,West,281,0.0,1.0,76,0.00,,---,0.00,VWS V13.00,2013-10-23 05:01:00,
2013-10-23 01:06:00,41.7,35.0,29.80,WNW,282,0.0,0.0,77,0.00,,---,0.00,VWS V13.00,2013-10-23 05:06:00,
2013-10-23 01:11:00,41.7,34.7,29.80,WNW,282,0.0,1.0,76,0.00,,---,0.00,VWS V13.00,2013-10-23 05:11:00,
2013-10-23 01:16:00,41.7,34.0,29.80,WNW,282,0.0,1.0,74,0.00,,---,0.00,VWS V13.00,2013-10-23 05:16:00,
2013-10-23 01:21:00,41.8,33.8,29.79,West,281,1.0,2.0,73,0.00,,---,0.00,VWS V13.00,2013-10-23 05:21:00,
2013-10-23 01:26:00,42.0,34.0,29.79,West,281,0.0,3.0,73,0.00,,---,0.00,VWS V13.00,2013-10-23 05:26:00,
2013-10-23 01:31:00,42.1,33.7,29.79,WNW,282,0.0,3.0,72,0.00,,---,0.00,VWS V13.00,2013-10-23 05:31:00,
2013-10-23 01:36:00,42.1,34.1,29.79,WNW,282,0.0,0.0,73,0.00,,---,0.00,VWS V13.00,2013-10-23 05:36:00,
2013-10-23 01:41:00,42.1,33.7,29.79,WNW,282,0.0,3.0,72,0.00,,---,0.00,VWS V13.00,2013-10-23 05:41:00,
2013-10-23 01:46:00,42.0,33.6,29.79,West,281,0.0,3.0,72,0.00,,---,0.00,VWS V13.00,2013-10-23 05:46:00,
2013-10-23 01:51:00,42.0,33.6,29.79,WNW,282,0.0,3.0,72,0.00,,---,0.00,VWS V13.00,2013-10-23 05:51:00,
2013-10-23 01:56:00,42.0,33.3,29.79,WNW,282,0.0,3.0,71,0.00,,---,0.00,VWS V13.00,2013-10-23 05:56:00,
2013-10-23 02:01:00,41.9,35.2,29.79,WNW,282,0.0,3.0,77,0.00,,---,0.00,VWS V13.00,2013-10-23 06:01:00,
2013-10-23 02:06:00,41.7,35.0,29.80,West,276,0.0,0.0,77,0.00,,---,0.00,VWS V13.00,2013-10-23 06:06:00,
2013-10-23 02:11:00,41.6,34.3,29.80,West,277,0.0,0.0,75,0.00,,---,0.00,VWS V13.00,2013-10-23 06:11:00,
2013-10-23 02:16:00,41.5,34.8,29.80,West,277,0.0,0.0,77,0.00,,---,0.00,VWS V13.00,2013-10-23 06:16:00,
2013-10-23 02:21:00,41.3,34.7,29.80,West,276,0.0,0.0,77,0.00,,---,0.00,VWS V13.00,2013-10-23 06:21:00,
2013-10-23 02:26:00,41.1,33.8,29.80,West,276,0.0,0.0,75,0.00,,---,0.00,VWS V13.00,2013-10-23 06:26:00,
2013-10-23 02:31:00,41.1,34.1,29.80,West,276,0.0,1.0,76,0.00,,---,0.00,VWS V13.00,2013-10-23 06:31:00,
2013-10-23 02:36:00,40.9,34.6,29.80,West,277,0.0,0.0,78,0.00,,---,0.00,VWS V13.00,2013-10-23 06:36:00,
2013-10-23 02:41:00,40.8,34.2,29.80,West,277,0.0,0.0,77,0.00,,---,0.00,VWS V13.00,2013-10-23 06:41:00,
2013-10-23 02:46:00,40.7,34.4,29.80,West,277,0.0,0.0,78,0.00,,---,0.00,VWS V13.00,2013-10-23 06:46:00,
2013-10-23 02:51:00,40.4,34.1,29.80,West,276,0.0,0.0,78,0.00,,---,0.00,VWS V13.00,2013-10-23 06:51:00,
2013-10-23 02:56:00,40.2,34.2,29.80,West,277,0.0,0.0,79,0.00,,---,0.00,VWS V13.00,2013-10-23 06:56:00,
2013-10-23 03:01:00,40.2,34.2,29.80,West,277,0.0,0.0,79,0.00,,---,0.00,VWS V13.00,2013-10-23 07:01:00,
2013-10-23 03:06:00,40.2,34.2,29.80,West,277,0.0,0.0,79,0.00,,---,0.00,VWS V13.00,2013-10-23 07:06:00,
2013-10-23 03:11:00,40.2,33.9,29.80,West,277,0.0,1.0,78,0.00,,---,0.00,VWS V13.00,2013-10-23 07:11:00,
2013-10-23 03:16:00,40.3,34.0,29.80,West,276,0.0,2.0,78,0.00,,---,0.00,VWS V13.00,2013-10-23 07:16:00,
2013-10-23 03:21:00,40.4,34.1,29.80,West,276,0.0,2.0,78,0.00,,---,0.00,VWS V13.00,2013-10-23 07:21:00,
2013-10-23 03:26:00,40.5,34.5,29.80,West,277,0.0,2.0,79,0.00,,---,0.00,VWS V13.00,2013-10-23 07:26:00,
2013-10-23 03:31:00,40.4,34.4,29.80,West,277,0.0,2.0,79,0.00,,---,0.00,VWS V13.00,2013-10-23 07:31:00,
2013-10-23 03:36:00,40.3,34.6,29.80,West,277,0.0,0.0,80,0.00,,---,0.00,VWS V13.00,2013-10-23 07:36:00,
2013-10-23 03:41:00,40.2,34.5,29.80,West,276,0.0,0.0,80,0.00,,---,0.00,VWS V13.00,2013-10-23 07:41:00,
2013-10-23 03:46:00,39.8,35.1,29.80,West,277,0.0,0.0,83,0.00,,---,0.00,VWS V13.00,2013-10-23 07:46:00,
2013-10-23 03:51:00,39.5,34.8,29.80,West,277,0.0,0.0,83,0.00,,---,0.00,VWS V13.00,2013-10-23 07:51:00,
2013-10-23 03:55:00,39.2,34.5,29.80,West,277,0.0,0.0,83,0.00,,---,0.00,VWS V13.00,2013-10-23 07:55:00,
2013-10-23 04:00:00,39.1,34.4,29.79,West,277,0.0,0.0,83,0.00,,---,0.00,VWS V13.00,2013-10-23 08:00:00,
2013-10-23 04:05:00,39.1,34.4,29.79,West,276,0.0,0.0,83,0.00,,---,0.00,VWS V13.00,2013-10-23 08:05:00,
2013-10-23 04:10:00,39.0,34.3,29.78,West,277,0.0,1.0,83,0.00,,---,0.00,VWS V13.00,2013-10-23 08:10:00,
2013-10-23 04:15:00,38.9,34.2,29.78,West,277,0.0,1.0,83,0.00,,---,0.00,VWS V13.00,2013-10-23 08:15:00,
2013-10-23 04:20:00,38.9,33.9,29.78,West,277,0.0,1.0,82,0.00,,---,0.00,VWS V13.00,2013-10-23 08:20:00,
2013-10-23 04:25:00,38.9,34.2,29.79,West,277,0.0,1.0,83,0.00,,---,0.00,VWS V13.00,2013-10-23 08:25:00,
2013-10-23 04:30:00,38.9,33.6,29.79,West,276,0.0,1.0,81,0.00,,---,0.00,VWS V13.00,2013-10-23 08:30:00,
2013-10-23 04:35:00,38.8,33.8,29.79,West,277,0.0,1.0,82,0.00,,---,0.00,VWS V13.00,2013-10-23 08:35:00,
2013-10-23 04:40:00,38.7,34.0,29.79,West,277,0.0,0.0,83,0.00,,---,0.00,VWS V13.00,2013-10-23 08:40:00,
2013-10-23 04:45:00,38.5,33.8,29.79,West,277,0.0,0.0,83,0.00,,---,0.00,VWS V13.00,2013-10-23 08:45:00,
2013-10-23 04:50:00,38.4,33.7,29.79,West,277,0.0,0.0,83,0.00,,---,0.00,VWS V13.00,2013-10-23 08:50:00,
2013-10-23 04:55:00,38.3,33.3,29.78,West,276,0.0,0.0,82,0.00,,---,0.00,VWS V13.00,2013-10-23 08:55:00,
2013-10-23 05:00:00,38.2,33.2,29.78,West,276,0.0,0.0,82,0.00,,---,0.00,VWS V13.00,2013-10-23 09:00:00,
2013-10-23 05:05:00,38.2,33.2,29.78,West,276,0.0,0.0,82,0.00,,---,0.00,VWS V13.00,2013-10-23 09:05:00,
2013-10-23 05:10:00,38.2,33.2,29.78,West,277,0.0,0.0,82,0.00,,---,0.00,VWS V13.00,2013-10-23 09:10:00,
2013-10-23 05:15:00,38.1,33.4,29.78,West,277,0.0,0.0,83,0.00,,---,0.00,VWS V13.00,2013-10-23 09:15:00,
2013-10-23 05:20:00,38.0,33.3,29.78,West,277,0.0,0.0,83,0.00,,---,0.00,VWS V13.00,2013-10-23 09:20:00,
2013-10-23 05:25:00,38.0,33.3,29.78,West,276,0.0,0.0,83,0.00,,---,0.00,VWS V13.00,2013-10-23 09:25:00,
2013-10-23 05:30:00,37.9,32.9,29.78,West,276,0.0,0.0,82,0.00,,---,0.00,VWS V13.00,2013-10-23 09:30:00,
2013-10-23 05:35:00,37.9,32.9,29.77,West,277,0.0,0.0,82,0.00,,---,0.00,VWS V13.00,2013-10-23 09:35:00,
2013-10-23 05:40:00,37.8,33.1,29.77,West,277,0.0,0.0,83,0.00,,---,0.00,VWS V13.00,2013-10-23 09:40:00,
2013-10-23 05:45:00,37.8,33.1,29.77,West,277,0.0,0.0,83,0.00,,---,0.00,VWS V13.00,2013-10-23 09:45:00,
2013-10-23 05:50:00,37.8,33.1,29.77,West,276,0.0,0.0,83,0.00,,---,0.00,VWS V13.00,2013-10-23 09:50:00,
2013-10-23 05:55:00,37.8,32.8,29.77,West,276,0.0,0.0,82,0.00,,---,0.00,VWS V13.00,2013-10-23 09:55:00,
2013-10-23 06:00:00,37.9,33.2,29.77,West,277,0.0,0.0,83,0.00,,---,0.00,VWS V13.00,2013-10-23 10:00:00,
2013-10-23 06:05:00,38.1,33.1,29.77,West,277,0.0,0.0,82,0.00,,---,0.00,VWS V13.00,2013-10-23 10:05:00,
2013-10-23 06:10:00,38.2,33.2,29.78,West,277,0.0,0.0,82,0.00,,---,0.00,VWS V13.00,2013-10-23 10:10:00,
2013-10-23 06:15:00,38.2,33.2,29.78,West,277,0.0,1.0,82,0.00,,---,0.00,VWS V13.00,2013-10-23 10:15:00,
2013-10-23 06:20:00,38.2,32.9,29.78,West,277,0.0,1.0,81,0.00,,---,0.00,VWS V13.00,2013-10-23 10:20:00,
2013-10-23 06:25:00,38.2,32.9,29.78,West,276,0.0,1.0,81,0.00,,---,0.00,VWS V13.00,2013-10-23 10:25:00,
2013-10-23 06:30:00,38.2,32.6,29.78,West,277,0.0,1.0,80,0.00,,---,0.00,VWS V13.00,2013-10-23 10:30:00,
2013-10-23 06:35:00,38.1,32.5,29.78,West,276,0.0,1.0,80,0.00,,---,0.00,VWS V13.00,2013-10-23 10:35:00,
2013-10-23 06:40:00,38.1,32.5,29.78,West,277,0.0,0.0,80,0.00,,---,0.00,VWS V13.00,2013-10-23 10:40:00,
2013-10-23 06:45:00,38.1,32.8,29.78,West,277,0.0,0.0,81,0.00,,---,0.00,VWS V13.00,2013-10-23 10:45:00,
2013-10-23 06:50:00,38.1,32.8,29.78,West,276,0.0,1.0,81,0.00,,---,0.00,VWS V13.00,2013-10-23 10:50:00,
2013-10-23 06:55:00,38.0,32.7,29.77,West,277,0.0,1.0,81,0.00,,---,0.00,VWS V13.00,2013-10-23 10:55:00,
2013-10-23 07:00:00,37.9,32.6,29.77,West,277,0.0,1.0,81,0.00,,---,0.00,VWS V13.00,2013-10-23 11:00:00,
2013-10-23 07:05:00,37.8,32.5,29.77,West,276,0.0,1.0,81,0.00,,---,0.00,VWS V13.00,2013-10-23 11:05:00,
2013-10-23 07:10:00,37.8,32.5,29.77,West,277,0.0,0.0,81,0.00,,---,0.00,VWS V13.00,2013-10-23 11:10:00,
2013-10-23 07:15:00,37.8,32.5,29.77,West,277,0.0,0.0,81,0.00,,---,0.00,VWS V13.00,2013-10-23 11:15:00,
2013-10-23 07:20:00,37.7,32.4,29.77,West,277,0.0,0.0,81,0.00,,---,0.00,VWS V13.00,2013-10-23 11:20:00,
2013-10-23 07:25:00,37.7,32.7,29.77,West,277,0.0,0.0,82,0.00,,---,0.00,VWS V13.00,2013-10-23 11:25:00,
2013-10-23 07:30:00,37.6,32.6,29.77,West,277,0.0,0.0,82,0.00,,---,0.00,VWS V13.00,2013-10-23 11:30:00,
2013-10-23 07:35:00,37.6,32.6,29.77,West,276,0.0,0.0,82,0.00,,---,0.00,VWS V13.00,2013-10-23 11:35:00,
2013-10-23 07:40:00,37.5,32.5,29.77,West,276,0.0,0.0,82,0.00,,---,0.00,VWS V13.00,2013-10-23 11:40:00,
2013-10-23 07:45:00,37.5,32.5,29.77,West,277,0.0,0.0,82,0.00,,---,0.00,VWS V13.00,2013-10-23 11:45:00,
2013-10-23 07:50:00,37.7,32.4,29.77,West,277,0.0,0.0,81,0.00,,---,0.00,VWS V13.00,2013-10-23 11:50:00,
2013-10-23 07:55:00,37.8,32.2,29.77,West,277,0.0,0.0,80,0.00,,---,0.00,VWS V13.00,2013-10-23 11:55:00,
2013-10-23 08:00:00,38.1,32.5,29.78,West,276,0.0,0.0,80,0.00,,---,0.00,VWS V13.00,2013-10-23 12:00:00,
2013-10-23 08:05:00,38.5,32.9,29.78,West,276,0.0,1.0,80,0.00,,---,0.00,VWS V13.00,2013-10-23 12:05:00,
2013-10-23 08:10:00,38.7,32.8,29.79,West,277,0.0,0.0,79,0.00,,---,0.00,VWS V13.00,2013-10-23 12:10:00,
2013-10-23 08:15:00,38.9,33.0,29.79,West,277,0.0,0.0,79,0.00,,---,0.00,VWS V13.00,2013-10-23 12:15:00,
2013-10-23 08:20:00,39.1,32.8,29.79,West,277,0.0,0.0,78,0.00,,---,0.00,VWS V13.00,2013-10-23 12:20:00,
2013-10-23 08:25:00,39.4,32.8,29.79,West,277,0.0,1.0,77,0.00,,---,0.00,VWS V13.00,2013-10-23 12:25:00,
2013-10-23 08:30:00,39.7,33.1,29.79,West,276,0.0,1.0,77,0.00,,---,0.00,VWS V13.00,2013-10-23 12:30:00,
2013-10-23 08:35:00,40.1,33.2,29.79,West,272,1.0,2.0,76,0.00,,---,0.00,VWS V13.00,2013-10-23 12:35:00,
2013-10-23 08:40:00,40.5,33.2,29.79,West,259,0.0,2.0,75,0.00,,---,0.00,VWS V13.00,2013-10-23 12:40:00,
2013-10-23 08:45:00,40.8,33.5,29.79,WSW,258,1.0,2.0,75,0.00,,---,0.00,VWS V13.00,2013-10-23 12:45:00,
2013-10-23 08:50:00,41.0,33.7,29.79,SSW,211,0.0,2.0,75,0.00,,---,0.00,VWS V13.00,2013-10-23 12:50:00,
2013-10-23 08:55:00,41.1,33.8,29.79,SSW,210,1.0,2.0,75,0.00,,---,0.00,VWS V13.00,2013-10-23 12:55:00,
2013-10-23 09:00:00,41.3,33.7,29.78,SSW,210,0.0,2.0,74,0.00,,---,0.00,VWS V13.00,2013-10-23 13:00:00,
2013-10-23 09:05:00,41.5,33.8,29.78,SSW,211,0.0,2.0,74,0.00,,---,0.00,VWS V13.00,2013-10-23 13:05:00,
2013-10-23 09:10:00,41.8,33.8,29.78,SSW,211,0.0,2.0,73,0.00,,---,0.00,VWS V13.00,2013-10-23 13:10:00,
2013-10-23 09:15:00,42.2,34.5,29.78,SSW,211,0.0,2.0,74,0.00,,---,0.00,VWS V13.00,2013-10-23 13:15:00,
2013-10-23 09:20:00,42.7,35.0,29.78,SSW,211,0.0,2.0,74,0.00,,---,0.00,VWS V13.00,2013-10-23 13:20:00,
2013-10-23 09:25:00,43.4,35.7,29.78,SSW,210,0.0,2.0,74,0.00,,---,0.00,VWS V13.00,2013-10-23 13:25:00,
2013-10-23 09:30:00,44.1,35.7,29.78,SSW,211,0.0,2.0,72,0.00,,---,0.00,VWS V13.00,2013-10-23 13:30:00,
2013-10-23 09:35:00,44.9,35.7,29.78,SSW,211,0.0,2.0,70,0.00,,---,0.00,VWS V13.00,2013-10-23 13:35:00,
2013-10-23 09:40:00,45.5,36.3,29.77,SSW,211,0.0,1.0,70,0.00,,---,0.00,VWS V13.00,2013-10-23 13:40:00,
2013-10-23 09:45:00,46.0,36.0,29.77,SSW,211,0.0,2.0,68,0.00,,---,0.00,VWS V13.00,2013-10-23 13:45:00,
2013-10-23 09:50:00,46.4,36.0,29.77,SW,217,1.0,4.0,67,0.00,,---,0.00,VWS V13.00,2013-10-23 13:50:00,
2013-10-23 09:55:00,47.0,35.5,29.77,SW,217,1.0,4.0,64,0.00,,---,0.00,VWS V13.00,2013-10-23 13:55:00,
2013-10-23 10:00:00,47.4,35.0,29.77,SW,221,0.0,4.0,62,0.00,,---,0.00,VWS V13.00,2013-10-23 14:00:00,
2013-10-23 10:05:00,47.5,35.9,29.76,SW,219,0.0,4.0,64,0.00,,---,0.00,VWS V13.00,2013-10-23 14:05:00,
2013-10-23 10:10:00,47.9,35.9,29.76,SW,221,0.0,1.0,63,0.00,,---,0.00,VWS V13.00,2013-10-23 14:10:00,
2013-10-23 10:15:00,48.4,36.0,29.76,SW,221,0.0,1.0,62,0.00,,---,0.00,VWS V13.00,2013-10-23 14:15:00,
2013-10-23 10:19:00,48.7,36.3,29.76,SW,221,0.0,2.0,62,0.00,,---,0.00,VWS V13.00,2013-10-23 14:19:00,
2013-10-23 10:24:00,48.8,36.0,29.76,SW,221,0.0,2.0,61,0.00,,---,0.00,VWS V13.00,2013-10-23 14:24:00,
2013-10-23 10:29:00,48.8,37.2,29.76,SW,221,0.0,2.0,64,0.00,,---,0.00,VWS V13.00,2013-10-23 14:29:00,
2013-10-23 10:34:00,49.0,36.2,29.76,SW,219,0.0,4.0,61,0.00,,---,0.00,VWS V13.00,2013-10-23 14:34:00,
2013-10-23 10:39:00,49.4,36.5,29.75,SW,221,0.0,2.0,61,0.00,,---,0.00,VWS V13.00,2013-10-23 14:39:00,
2013-10-23 10:44:00,49.6,35.9,29.75,SW,223,0.0,4.0,59,0.00,,---,0.00,VWS V13.00,2013-10-23 14:44:00,
2013-10-23 10:49:00,49.9,36.2,29.75,SW,223,0.0,4.0,59,0.00,,---,0.00,VWS V13.00,2013-10-23 14:49:00,
2013-10-23 10:54:00,50.3,36.5,29.75,SW,223,2.0,4.0,59,0.00,,---,0.00,VWS V13.00,2013-10-23 14:54:00,
2013-10-23 10:59:00,50.1,36.3,29.75,SW,223,0.0,4.0,59,0.00,,---,0.00,VWS V13.00,2013-10-23 14:59:00,
2013-10-23 11:04:00,50.1,35.9,29.75,SW,223,1.0,4.0,58,0.00,,---,0.00,VWS V13.00,2013-10-23 15:04:00,
2013-10-23 11:09:00,50.2,36.0,29.75,SW,223,0.0,2.0,58,0.00,,---,0.00,VWS V13.00,2013-10-23 15:09:00,
2013-10-23 11:14:00,50.4,36.6,29.75,SW,225,0.0,4.0,59,0.00,,---,0.00,VWS V13.00,2013-10-23 15:14:00,
2013-10-23 11:19:00,50.8,35.7,29.75,SW,225,1.0,4.0,56,0.00,,---,0.00,VWS V13.00,2013-10-23 15:19:00,
2013-10-23 11:24:00,50.5,35.8,29.75,SW,223,0.0,4.0,57,0.00,,---,0.00,VWS V13.00,2013-10-23 15:24:00,
2013-10-23 11:29:00,50.3,35.2,29.75,SW,223,0.0,4.0,56,0.00,,---,0.00,VWS V13.00,2013-10-23 15:29:00,
2013-10-23 11:34:00,50.2,35.6,29.74,SW,225,2.0,4.0,57,0.00,,---,0.00,VWS V13.00,2013-10-23 15:34:00,
2013-10-23 11:39:00,50.0,34.5,29.74,SW,225,0.0,1.0,55,0.00,,---,0.00,VWS V13.00,2013-10-23 15:39:00,
2013-10-23 11:44:00,49.9,34.8,29.74,SW,225,2.0,3.0,56,0.00,,---,0.00,VWS V13.00,2013-10-23 15:44:00,
2013-10-23 11:49:00,49.8,35.6,29.73,SW,225,0.0,3.0,58,0.00,,---,0.00,VWS V13.00,2013-10-23 15:49:00,
2013-10-23 11:54:00,50.0,35.4,29.73,SW,225,1.0,3.0,57,0.00,,---,0.00,VWS V13.00,2013-10-23 15:54:00,
2013-10-23 11:59:00,49.9,34.8,29.73,SW,225,0.0,3.0,56,0.00,,---,0.00,VWS V13.00,2013-10-23 15:59:00,
2013-10-23 12:04:00,50.1,35.5,29.73,SW,225,0.0,3.0,57,0.00,,---,0.00,VWS V13.00,2013-10-23 16:04:00,
2013-10-23 12:09:00,50.3,34.8,29.72,SW,226,1.0,3.0,55,0.00,,---,0.00,VWS V13.00,2013-10-23 16:09:00,
2013-10-23 12:14:00,50.3,35.2,29.72,SW,226,0.0,3.0,56,0.00,,---,0.00,VWS V13.00,2013-10-23 16:14:00,
2013-10-23 12:19:00,50.4,34.9,29.72,SW,226,0.0,3.0,55,0.00,,---,0.00,VWS V13.00,2013-10-23 16:19:00,
2013-10-23 12:24:00,50.5,34.5,29.71,SW,225,1.0,5.0,54,0.00,,---,0.00,VWS V13.00,2013-10-23 16:24:00,
2013-10-23 12:29:00,50.4,33.9,29.71,SW,225,1.0,5.0,53,0.00,,---,0.00,VWS V13.00,2013-10-23 16:29:00,
2013-10-23 12:34:00,50.1,33.7,29.71,SW,225,0.0,5.0,53,0.00,,---,0.00,VWS V13.00,2013-10-23 16:34:00,
2013-10-23 12:39:00,50.1,33.7,29.71,SW,225,1.0,2.0,53,0.00,,---,0.00,VWS V13.00,2013-10-23 16:39:00,
2013-10-23 12:44:00,50.4,33.0,29.70,SW,225,1.0,4.0,51,0.00,,---,0.00,VWS V13.00,2013-10-23 16:44:00,
2013-10-23 12:49:00,50.8,33.8,29.70,SW,225,0.0,4.0,52,0.00,,---,0.00,VWS V13.00,2013-10-23 16:49:00,
2013-10-23 12:54:00,50.9,32.9,29.70,SW,228,0.0,4.0,50,0.00,,---,0.00,VWS V13.00,2013-10-23 16:54:00,
2013-10-23 12:59:00,51.0,32.5,29.70,SW,228,0.0,4.0,49,0.00,,---,0.00,VWS V13.00,2013-10-23 16:59:00,
2013-10-23 13:04:00,50.9,33.4,29.70,SW,221,0.0,4.0,51,0.00,,---,0.00,VWS V13.00,2013-10-23 17:04:00,
2013-10-23 13:09:00,50.8,33.8,29.70,SW,221,0.0,1.0,52,0.00,,---,0.00,VWS V13.00,2013-10-23 17:09:00,
2013-10-23 13:14:00,50.9,34.9,29.69,SW,221,0.0,1.0,54,0.00,,---,0.00,VWS V13.00,2013-10-23 17:14:00,
2013-10-23 13:19:00,51.0,34.0,29.69,SW,218,1.0,3.0,52,0.00,,---,0.00,VWS V13.00,2013-10-23 17:19:00,
2013-10-23 13:24:00,50.9,33.4,29.69,SW,218,0.0,3.0,51,0.00,,---,0.00,VWS V13.00,2013-10-23 17:24:00,
2013-10-23 13:29:00,50.9,32.9,29.68,SW,218,0.0,3.0,50,0.00,,---,0.00,VWS V13.00,2013-10-23 17:29:00,
2013-10-23 13:34:00,51.0,34.5,29.67,SW,218,0.0,3.0,53,0.00,,---,0.00,VWS V13.00,2013-10-23 17:34:00,
2013-10-23 13:39:00,51.1,33.6,29.67,South,190,0.0,2.0,51,0.00,,---,0.00,VWS V13.00,2013-10-23 17:39:00,
2013-10-23 13:44:00,51.2,33.7,29.67,South,191,0.0,3.0,51,0.00,,---,0.00,VWS V13.00,2013-10-23 17:44:00,
2013-10-23 13:49:00,51.3,33.3,29.66,South,191,0.0,3.0,50,0.00,,---,0.00,VWS V13.00,2013-10-23 17:49:00,
2013-10-23 13:54:00,51.4,33.4,29.66,South,191,1.0,3.0,50,0.00,,---,0.00,VWS V13.00,2013-10-23 17:54:00,
2013-10-23 13:59:00,51.4,32.9,29.66,South,191,0.0,3.0,49,0.00,,---,0.00,VWS V13.00,2013-10-23 17:59:00,
2013-10-23 14:04:00,51.8,33.8,29.65,SSW,198,1.0,5.0,50,0.00,,---,0.00,VWS V13.00,2013-10-23 18:04:00,
2013-10-23 14:09:00,52.7,34.6,29.64,SSW,198,0.0,2.0,50,0.00,,---,0.00,VWS V13.00,2013-10-23 18:09:00,
2013-10-23 14:14:00,53.3,33.6,29.64,SSW,204,1.0,5.0,47,0.00,,---,0.00,VWS V13.00,2013-10-23 18:14:00,
2013-10-23 14:19:00,53.6,33.3,29.64,SSE,156,0.0,5.0,46,0.00,,---,0.00,VWS V13.00,2013-10-23 18:19:00,
2013-10-23 14:24:00,53.7,33.4,29.63,SSE,157,3.0,5.0,46,0.00,,---,0.00,VWS V13.00,2013-10-23 18:24:00,
2013-10-23 14:29:00,54.0,34.2,29.62,SSE,157,0.0,5.0,47,0.00,,---,0.00,VWS V13.00,2013-10-23 18:29:00,
2013-10-23 14:34:00,54.2,33.3,29.63,WNW,282,2.0,5.0,45,0.00,,---,0.00,VWS V13.00,2013-10-23 18:34:00,
2013-10-23 14:39:00,54.0,33.7,29.63,WNW,282,1.0,3.0,46,0.00,,---,0.00,VWS V13.00,2013-10-23 18:39:00,
2013-10-23 14:44:00,54.1,33.2,29.63,West,281,0.0,3.0,45,0.00,,---,0.00,VWS V13.00,2013-10-23 18:44:00,
2013-10-23 14:49:00,53.9,33.1,29.63,SW,217,1.0,5.0,45,0.00,,---,0.00,VWS V13.00,2013-10-23 18:49:00,
2013-10-23 14:54:00,53.5,32.7,29.63,SW,215,0.0,5.0,45,0.00,,---,0.00,VWS V13.00,2013-10-23 18:54:00,
2013-10-23 14:59:00,53.0,32.8,29.63,West,279,2.0,5.0,46,0.00,,---,0.00,VWS V13.00,2013-10-23 18:59:00,
2013-10-23 15:04:00,52.4,32.2,29.62,West,275,1.0,5.0,46,0.00,,---,0.00,VWS V13.00,2013-10-23 19:04:00,
2013-10-23 15:09:00,52.1,33.0,29.62,West,275,0.0,2.0,48,0.00,,---,0.00,VWS V13.00,2013-10-23 19:09:00,
2013-10-23 15:14:00,52.6,33.0,29.61,WSW,253,1.0,5.0,47,0.00,,---,0.00,VWS V13.00,2013-10-23 19:14:00,
2013-10-23 15:19:00,53.2,32.4,29.61,WSW,253,0.0,5.0,45,0.00,,---,0.00,VWS V13.00,2013-10-23 19:19:00,
2013-10-23 15:24:00,53.3,33.1,29.61,WNW,295,0.0,5.0,46,0.00,,---,0.00,VWS V13.00,2013-10-23 19:24:00,
2013-10-23 15:29:00,53.0,32.8,29.62,WNW,295,0.0,5.0,46,0.00,,---,0.00,VWS V13.00,2013-10-23 19:29:00,
2013-10-23 15:34:00,52.5,32.9,29.63,SW,230,0.0,5.0,47,0.00,,---,0.00,VWS V13.00,2013-10-23 19:34:00,
2013-10-23 15:39:00,52.3,32.7,29.63,SW,230,0.0,1.0,47,0.00,,---,0.00,VWS V13.00,2013-10-23 19:39:00,
2013-10-23 15:44:00,52.0,32.9,29.63,SW,231,0.0,3.0,48,0.00,,---,0.00,VWS V13.00,2013-10-23 19:44:00,
2013-10-23 15:49:00,51.7,32.1,29.63,WSW,246,0.0,4.0,47,0.00,,---,0.00,VWS V13.00,2013-10-23 19:49:00,
2013-10-23 15:54:00,51.5,32.5,29.63,WSW,248,0.0,4.0,48,0.00,,---,0.00,VWS V13.00,2013-10-23 19:54:00,
2013-10-23 15:59:00,51.5,32.5,29.63,WSW,248,0.0,4.0,48,0.00,,---,0.00,VWS V13.00,2013-10-23 19:59:00,
2013-10-23 16:04:00,51.4,32.4,29.63,WSW,248,0.0,4.0,48,0.00,,---,0.00,VWS V13.00,2013-10-23 20:04:00,
2013-10-23 16:09:00,51.4,32.4,29.62,WSW,248,0.0,2.0,48,0.00,,---,0.00,VWS V13.00,2013-10-23 20:09:00,
2013-10-23 16:14:00,51.4,32.4,29.62,WSW,248,0.0,2.0,48,0.00,,---,0.00,VWS V13.00,2013-10-23 20:14:00,
2013-10-23 16:19:00,51.3,32.3,29.62,WSW,248,0.0,2.0,48,0.00,,---,0.00,VWS V13.00,2013-10-23 20:19:00,
2013-10-23 16:24:00,51.2,32.7,29.62,WSW,248,0.0,2.0,49,0.00,,---,0.00,VWS V13.00,2013-10-23 20:24:00,
2013-10-23 16:29:00,51.0,32.0,29.62,WSW,248,0.0,2.0,48,0.00,,---,0.00,VWS V13.00,2013-10-23 20:29:00,
2013-10-23 16:34:00,50.9,33.4,29.63,WSW,248,0.0,2.0,51,0.00,,---,0.00,VWS V13.00,2013-10-23 20:34:00,
2013-10-23 16:39:00,50.7,32.8,29.63,WSW,248,0.0,1.0,50,0.00,,---,0.00,VWS V13.00,2013-10-23 20:39:00,
2013-10-23 16:44:00,50.5,33.5,29.62,WSW,248,0.0,1.0,52,0.00,,---,0.00,VWS V13.00,2013-10-23 20:44:00,
2013-10-23 16:49:00,50.4,33.0,29.63,WSW,248,0.0,1.0,51,0.00,,---,0.00,VWS V13.00,2013-10-23 20:49:00,
2013-10-23 16:54:00,50.3,33.4,29.63,WSW,248,0.0,1.0,52,0.00,,---,0.00,VWS V13.00,2013-10-23 20:54:00,
2013-10-23 16:59:00,50.1,32.7,29.63,WSW,248,0.0,1.0,51,0.00,,---,0.00,VWS V13.00,2013-10-23 20:59:00,
2013-10-23 17:04:00,49.9,34.4,29.63,WSW,248,0.0,1.0,55,0.00,,---,0.00,VWS V13.00,2013-10-23 21:04:00,
2013-10-23 17:09:00,49.9,33.9,29.62,WSW,248,0.0,0.0,54,0.00,,---,0.00,VWS V13.00,2013-10-23 21:09:00,
2013-10-23 17:14:00,49.8,33.8,29.62,WSW,248,0.0,0.0,54,0.00,,---,0.00,VWS V13.00,2013-10-23 21:14:00,
2013-10-23 17:19:00,49.7,33.3,29.62,WSW,248,0.0,0.0,53,0.00,,---,0.00,VWS V13.00,2013-10-23 21:19:00,
2013-10-23 17:23:00,49.5,34.0,29.62,WSW,248,0.0,0.0,55,0.00,,---,0.00,VWS V13.00,2013-10-23 21:23:00,
2013-10-23 17:28:00,49.4,35.3,29.63,WSW,248,0.0,0.0,58,0.00,,---,0.00,VWS V13.00,2013-10-23 21:28:00,
2013-10-23 17:33:00,49.2,35.1,29.64,WSW,248,0.0,0.0,58,0.00,,---,0.00,VWS V13.00,2013-10-23 21:33:00,
2013-10-23 17:38:00,49.0,34.5,29.64,WSW,248,0.0,0.0,57,0.00,,---,0.00,VWS V13.00,2013-10-23 21:38:00,
2013-10-23 17:43:00,48.8,33.8,29.63,WSW,248,0.0,1.0,56,0.00,,---,0.00,VWS V13.00,2013-10-23 21:43:00,
2013-10-23 17:48:00,48.6,34.9,29.64,WSW,248,0.0,1.0,59,0.00,,---,0.00,VWS V13.00,2013-10-23 21:48:00,
2013-10-23 17:53:00,48.3,35.1,29.64,WSW,248,0.0,1.0,60,0.00,,---,0.00,VWS V13.00,2013-10-23 21:53:00,
2013-10-23 17:58:00,47.9,34.7,29.63,WSW,248,0.0,1.0,60,0.00,,---,0.00,VWS V13.00,2013-10-23 21:58:00,
2013-10-23 18:03:00,47.6,34.4,29.64,WSW,248,0.0,1.0,60,0.00,,---,0.00,VWS V13.00,2013-10-23 22:03:00,
2013-10-23 18:08:00,47.2,34.0,29.64,WSW,248,0.0,0.0,60,0.00,,---,0.00,VWS V13.00,2013-10-23 22:08:00,
2013-10-23 18:13:00,46.9,34.2,29.64,WSW,248,0.0,0.0,61,0.00,,---,0.00,VWS V13.00,2013-10-23 22:13:00,
2013-10-23 18:18:00,46.7,34.4,29.64,WSW,248,0.0,0.0,62,0.00,,---,0.00,VWS V13.00,2013-10-23 22:18:00,
2013-10-23 18:23:00,46.5,34.6,29.64,WSW,248,0.0,0.0,63,0.00,,---,0.00,VWS V13.00,2013-10-23 22:23:00,
2013-10-23 18:28:00,46.3,34.4,29.64,WSW,248,0.0,0.0,63,0.00,,---,0.00,VWS V13.00,2013-10-23 22:28:00,
2013-10-23 18:33:00,46.1,34.2,29.64,WSW,248,0.0,0.0,63,0.00,,---,0.00,VWS V13.00,2013-10-23 22:33:00,
2013-10-23 18:38:00,45.9,33.2,29.64,WSW,248,0.0,0.0,61,0.00,,---,0.00,VWS V13.00,2013-10-23 22:38:00,
2013-10-23 18:43:00,45.7,33.4,29.64,WSW,248,0.0,0.0,62,0.00,,---,0.00,VWS V13.00,2013-10-23 22:43:00,
2013-10-23 18:48:00,45.6,33.8,29.64,WSW,248,0.0,0.0,63,0.00,,---,0.00,VWS V13.00,2013-10-23 22:48:00,
2013-10-23 18:53:00,45.5,33.7,29.64,WSW,248,0.0,0.0,63,0.00,,---,0.00,VWS V13.00,2013-10-23 22:53:00,
2013-10-23 18:58:00,45.4,33.6,29.64,WSW,248,0.0,0.0,63,0.00,,---,0.00,VWS V13.00,2013-10-23 22:58:00,
2013-10-23 19:03:00,45.3,33.5,29.65,WSW,248,0.0,0.0,63,0.00,,---,0.00,VWS V13.00,2013-10-23 23:03:00,
2013-10-23 19:08:00,45.1,34.0,29.64,WSW,248,0.0,0.0,65,0.00,,---,0.00,VWS V13.00,2013-10-23 23:08:00,
2013-10-23 19:13:00,45.0,34.0,29.64,WSW,248,0.0,0.0,65,0.00,,---,0.00,VWS V13.00,2013-10-23 23:13:00,
2013-10-23 19:18:00,45.0,34.0,29.64,WSW,248,0.0,0.0,65,0.00,,---,0.00,VWS V13.00,2013-10-23 23:18:00,
2013-10-23 19:23:00,44.7,34.0,29.64,WSW,248,0.0,0.0,66,0.00,,---,0.00,VWS V13.00,2013-10-23 23:23:00,
2013-10-23 19:28:00,44.6,34.3,29.64,WSW,248,0.0,0.0,67,0.00,,---,0.00,VWS V13.00,2013-10-23 23:28:00,
2013-10-23 19:33:00,44.3,33.3,29.64,WSW,248,0.0,0.0,65,0.00,,---,0.00,VWS V13.00,2013-10-23 23:33:00,
2013-10-23 19:38:00,44.0,33.8,29.64,WSW,248,0.0,0.0,67,0.00,,---,0.00,VWS V13.00,2013-10-23 23:38:00,
2013-10-23 19:43:00,43.9,34.0,29.64,WSW,248,0.0,0.0,68,0.00,,---,0.00,VWS V13.00,2013-10-23 23:43:00,
2013-10-23 19:48:00,43.6,33.8,29.64,WSW,248,0.0,1.0,68,0.00,,---,0.00,VWS V13.00,2013-10-23 23:48:00,
2013-10-23 19:53:00,43.4,33.9,29.64,WSW,248,0.0,1.0,69,0.00,,---,0.00,VWS V13.00,2013-10-23 23:53:00,
2013-10-23 19:58:00,43.3,34.2,29.64,WSW,248,0.0,1.0,70,0.00,,---,0.00,VWS V13.00,2013-10-23 23:58:00,
2013-10-23 20:03:00,43.2,33.7,29.65,WSW,248,0.0,1.0,69,0.00,,---,0.00,VWS V13.00,2013-10-24 00:03:00,
2013-10-23 20:08:00,43.0,33.2,29.65,WSW,248,0.0,0.0,68,0.00,,---,0.00,VWS V13.00,2013-10-24 00:08:00,
2013-10-23 20:13:00,43.0,34.2,29.65,WSW,248,0.0,0.0,71,0.00,,---,0.00,VWS V13.00,2013-10-24 00:13:00,
2013-10-23 20:18:00,42.9,34.2,29.65,WSW,248,0.0,0.0,71,0.00,,---,0.00,VWS V13.00,2013-10-24 00:18:00,
2013-10-23 20:23:00,42.9,34.2,29.65,WSW,248,0.0,0.0,71,0.00,,---,0.00,VWS V13.00,2013-10-24 00:23:00,
2013-10-23 20:28:00,42.9,34.8,29.65,WSW,248,0.0,1.0,73,0.00,,---,0.00,VWS V13.00,2013-10-24 00:28:00,
2013-10-23 20:33:00,42.9,34.5,29.65,WSW,248,0.0,1.0,72,0.00,,---,0.00,VWS V13.00,2013-10-24 00:33:00,
2013-10-23 20:38:00,42.9,34.5,29.64,WSW,248,0.0,1.0,72,0.00,,---,0.00,VWS V13.00,2013-10-24 00:38:00,
2013-10-23 20:43:00,43.0,34.6,29.64,WSW,248,0.0,1.0,72,0.00,,---,0.00,VWS V13.00,2013-10-24 00:43:00,
2013-10-23 20:48:00,43.0,35.0,29.64,WSW,248,0.0,1.0,73,0.00,,---,0.00,VWS V13.00,2013-10-24 00:48:00,
2013-10-23 20:53:00,43.1,35.0,29.64,WSW,248,0.0,1.0,73,0.00,,---,0.00,VWS V13.00,2013-10-24 00:53:00,
2013-10-23 20:58:00,43.1,35.0,29.64,WSW,248,0.0,1.0,73,0.00,,---,0.00,VWS V13.00,2013-10-24 00:58:00,
2013-10-23 21:03:00,43.2,35.1,29.64,WSW,248,0.0,1.0,73,0.00,,---,0.00,VWS V13.00,2013-10-24 01:03:00,
2013-10-23 21:08:00,43.2,35.1,29.64,WSW,248,0.0,0.0,73,0.00,,---,0.00,VWS V13.00,2013-10-24 01:08:00,
2013-10-23 21:13:00,43.3,35.2,29.63,WSW,248,0.0,1.0,73,0.00,,---,0.00,VWS V13.00,2013-10-24 01:13:00,
2013-10-23 21:18:00,43.3,34.2,29.64,WSW,248,0.0,2.0,70,0.00,,---,0.00,VWS V13.00,2013-10-24 01:18:00,
2013-10-23 21:23:00,43.6,34.5,29.63,WSW,248,0.0,2.0,70,0.00,,---,0.00,VWS V13.00,2013-10-24 01:23:00,
2013-10-23 21:28:00,43.8,34.3,29.64,WSW,248,0.0,2.0,69,0.00,,---,0.00,VWS V13.00,2013-10-24 01:28:00,
2013-10-23 21:33:00,44.0,34.1,29.64,WSW,248,0.0,3.0,68,0.00,,---,0.00,VWS V13.00,2013-10-24 01:33:00,
2013-10-23 21:38:00,44.1,34.2,29.64,WSW,248,0.0,0.0,68,0.00,,---,0.00,VWS V13.00,2013-10-24 01:38:00,
2013-10-23 21:43:00,44.2,34.7,29.64,WSW,248,0.0,1.0,69,0.00,,---,0.00,VWS V13.00,2013-10-24 01:43:00,
2013-10-23 21:48:00,44.2,34.3,29.64,WSW,248,0.0,1.0,68,0.00,,---,0.00,VWS V13.00,2013-10-24 01:48:00,
2013-10-23 21:53:00,44.2,34.0,29.64,WSW,248,0.0,1.0,67,0.00,,---,0.00,VWS V13.00,2013-10-24 01:53:00,
2013-10-23 21:58:00,44.2,34.3,29.64,WSW,248,1.0,1.0,68,0.00,,---,0.00,VWS V13.00,2013-10-24 01:58:00,
2013-10-23 22:03:00,44.2,34.3,29.64,WSW,248,1.0,2.0,68,0.00,,---,0.00,VWS V13.00,2013-10-24 02:03:00,
2013-10-23 22:08:00,44.3,34.0,29.64,West,275,2.0,5.0,67,0.00,,---,0.00,VWS V13.00,2013-10-24 02:08:00,
2013-10-23 22:13:00,44.5,34.2,29.64,WNW,284,6.0,7.0,67,0.00,,---,0.00,VWS V13.00,2013-10-24 02:13:00,
2013-10-23 22:18:00,44.7,34.4,29.64,West,280,0.0,7.0,67,0.00,,---,0.00,VWS V13.00,2013-10-24 02:18:00,
2013-10-23 22:23:00,44.7,34.8,29.64,WNW,286,3.0,7.0,68,0.00,,---,0.00,VWS V13.00,2013-10-24 02:23:00,
2013-10-23 22:28:00,44.7,34.8,29.64,WNW,285,1.0,7.0,68,0.00,,---,0.00,VWS V13.00,2013-10-24 02:28:00,
2013-10-23 22:33:00,44.7,34.8,29.65,NW,322,3.0,7.0,68,0.00,,---,0.00,VWS V13.00,2013-10-24 02:33:00,
2013-10-23 22:38:00,44.6,35.1,29.65,WNW,284,3.0,5.0,69,0.00,,---,0.00,VWS V13.00,2013-10-24 02:38:00,
2013-10-23 22:43:00,44.6,35.1,29.65,WNW,285,1.0,5.0,69,0.00,,---,0.00,VWS V13.00,2013-10-24 02:43:00,
2013-10-23 22:48:00,44.5,35.0,29.65,WNW,288,0.0,5.0,69,0.00,,---,0.00,VWS V13.00,2013-10-24 02:48:00,
2013-10-23 22:53:00,44.4,35.2,29.65,NW,310,5.0,10.0,70,0.00,,---,0.00,VWS V13.00,2013-10-24 02:53:00,
2013-10-23 22:58:00,44.4,35.2,29.65,WNW,283,2.0,10.0,70,0.00,,---,0.00,VWS V13.00,2013-10-24 02:58:00,
2013-10-23 23:03:00,44.3,35.2,29.65,WNW,292,0.0,11.0,70,0.00,,---,0.00,VWS V13.00,2013-10-24 03:03:00,
2013-10-23 23:08:00,44.3,35.5,29.66,NNW,336,2.0,6.0,71,0.00,,---,0.00,VWS V13.00,2013-10-24 03:08:00,
2013-10-23 23:13:00,44.2,35.8,29.66,NNW,329,3.0,6.0,72,0.00,,---,0.00,VWS V13.00,2013-10-24 03:13:00,
2013-10-23 23:18:00,44.2,35.8,29.66,West,279,2.0,6.0,72,0.00,,---,0.00,VWS V13.00,2013-10-24 03:18:00,
2013-10-23 23:23:00,44.1,35.7,29.66,WNW,288,0.0,6.0,72,0.00,,---,0.00,VWS V13.00,2013-10-24 03:23:00,
2013-10-23 23:28:00,44.0,35.9,29.66,WNW,291,0.0,6.0,73,0.00,,---,0.00,VWS V13.00,2013-10-24 03:28:00,
2013-10-23 23:33:00,44.0,35.9,29.65,West,275,2.0,7.0,73,0.00,,---,0.00,VWS V13.00,2013-10-24 03:33:00,
2013-10-23 23:38:00,44.1,36.0,29.66,West,276,2.0,3.0,73,0.00,,---,0.00,VWS V13.00,2013-10-24 03:38:00,
2013-10-23 23:43:00,44.0,35.9,29.66,West,276,0.0,3.0,73,0.00,,---,0.00,VWS V13.00,2013-10-24 03:43:00,
2013-10-23 23:48:00,44.0,35.9,29.66,NW,314,1.0,4.0,73,0.00,,---,0.00,VWS V13.00,2013-10-24 03:48:00,
2013-10-23 23:53:00,44.0,36.3,29.66,NW,312,2.0,4.0,74,0.00,,---,0.00,VWS V13.00,2013-10-24 03:53:00,
2013-10-23 23:58:00,44.0,36.3,29.66,West,280,1.0,7.0,74,0.00,,---,0.00,VWS V13.00,2013-10-24 03:58:00,